Flight Track Log - Related Links

Times and Time Zones

All times are in EDT time to prevent confusion due to time zone crossing. See the N147SW flight status page for this flight to view local times or setup timezone preferences in your user account.


Time Position Orientation Groundspeed Altitude Reporting Facility
EDT Latitude Longitude Course Direction KTS MPH feet Rate Location/Type
Thu 05:26:20 PM 25.5294 -78.1025 295° West 317 365 15,400  Level Miami Center
Thu 05:27:20 PM 25.5622 -78.1811 295° West 284 327 17,500 2,150 Climbing Miami Center
Thu 05:28:20 PM 25.6056 -78.2622 301° West 287 330 19,700 2,350 Climbing Miami Center
Thu 05:29:20 PM 25.6486 -78.3456 300° West 301 346 22,200 3,000 Climbing Miami Center
Thu 05:30:20 PM 25.6875 -78.4222 299° West 301 346 25,700 1,900 Climbing Miami Center
Thu 05:31:20 PM 25.7303 -78.5106 298° West 307 353 26,000 150 Climbing Miami Center
Thu 05:32:20 PM 25.7814 -78.6128 299° West 342 394 26,000  Level Miami Center
Thu 05:33:19 PM 25.8303 -78.7264 296° West 380 437 26,000  Level Miami Center
Thu 05:34:20 PM 25.8850 -78.8383 299° West 398 458 26,000  Level Miami Center
Thu 05:35:20 PM 25.9442 -78.9478 301° West 408 470 26,000  Level Miami Center
Thu 05:36:20 PM 26.0011 -79.0597 300° West 414 476 26,000  Level Miami Center
Thu 05:37:19 PM 26.0558 -79.1717 299° West 414 476 26,000  Level Miami Center
Thu 05:38:20 PM 26.1125 -79.2864 299° West 414 476 26,000  Level Miami Center
Thu 05:39:20 PM 26.1647 -79.4008 297° West 414 476 26,000  Level Miami Center
Thu 05:40:20 PM 26.2211 -79.5156 299° West 414 476 26,000  Level Miami Center
Thu 05:41:20 PM 26.2736 -79.6256 298° West 414 476 26,000  Level Miami Center
Thu 05:42:20 PM 26.3339 -79.7475 299° West 414 476 26,000  Level Miami Center
Thu 05:43:20 PM 26.3819 -79.8506 298° West 414 476 26,000  Level Miami Center
Thu 05:44:20 PM 26.4400 -79.9728 298° West 414 476 26,000  Level Miami Center
Thu 05:45:20 PM 26.4897 -80.0761 298° West 414 476 26,000  Level Miami Center
Thu 05:46:20 PM 26.5436 -80.1892 298° West 414 476 26,000  Level Miami Center
Thu 05:47:20 PM 26.6033 -80.3139 298° West 414 476 26,000  Level Miami Center
Thu 05:48:20 PM 26.6511 -80.4128 298° West 414 476 26,000  Level Miami Center
Thu 05:49:20 PM 26.7086 -80.5378 297° West 414 476 26,000  Level Miami Center
Thu 05:50:20 PM 26.7561 -80.6372 298° West 414 476 26,000  Level Miami Center
Thu 05:51:19 PM 26.7997 -80.7292 298° West 414 476 26,000  Level Miami Center
Thu 05:52:20 PM 26.8608 -80.8617 297° West 414 476 26,000  Level Miami Center
Thu 05:53:20 PM 26.9161 -80.9753 299° West 408 470 26,000  Level Miami Center
Thu 05:54:20 PM 26.9672 -81.0867 297° West 408 470 26,000  Level Miami Center
Thu 05:55:20 PM 27.0183 -81.1981 297° West 403 464 26,000 -300 Level Miami Center
Thu 05:56:20 PM 27.0772 -81.3214 298° West 403 464 25,400 -1,300 Descending Miami Center
Thu 05:57:20 PM 27.1339 -81.4425 298° West 414 476 23,400 -1,700 Descending Miami Center
Thu 05:58:20 PM 27.1614 -81.5628 284° West 406 467 22,000 -1,150 Descending Miami Center
Thu 05:59:20 PM 27.1472 -81.6719 262° West 389 448 21,100 -1,500 Descending Miami Center
Thu 06:00:20 PM 27.1833 -81.7831 290° West 356 410 19,000 -2,050 Descending Miami Center
Thu 06:01:20 PM 27.2550 -81.8794 310° West 382 440 17,000 -2,100 Descending Miami Center
Thu 06:02:20 PM 27.3289 -81.9761 311° West 400 460 14,800 -2,200 Descending Miami Center
Thu 06:03:20 PM 27.4008 -82.0681 311° West 400 460 12,600 -1,900 Descending Miami Center
Thu 06:04:20 PM 27.4747 -82.1606 312° West 400 460 11,000 -807 Descending Miami Center
Thu 06:05:19 PM 27.5586 -82.2556 315° West 389 448 11,000 -403 Level Miami Center
Thu 06:06:19 PM 27.5861 -82.3553 287° West 378 435 10,200 -1,250 Descending Miami Center
Thu 06:07:19 PM 27.5928 -82.4539 274° West 341 392 8,500 -1,967 Descending Miami Center
Thu 06:08:21 PM 27.6000 -82.5500 275° West 255 293 6,200 -2,115 Descending Tampa TRACON
Thu 06:09:21 PM 27.6000 -82.6333 270° West 258 297 4,200 -1,550 Descending Tampa TRACON
Thu 06:10:21 PM 27.6500 -82.6833 318° Northwest 269 310 3,100 -700 Descending Tampa TRACON
Thu 06:11:21 PM 27.7167 -82.7000 348° North 247 284 2,800 -500 Descending Tampa TRACON
Thu 06:12:21 PM 27.7833 -82.6833 12° North 258 297 2,100 -900 Descending Tampa TRACON
Thu 06:13:21 PM 27.8500 -82.6833 360° North 217 250 1,000 -1,100 Descending Tampa TRACON
Thu 06:15:00 PM 27.9100 -82.6875 356° North  Level Estimated

Login

Don't have an account? Register now (free) for customized features, flight alerts, and more!